Arbroath, United Kingdom
Current Conditions -  °F | °C
As of 5:50 AM on Thursday 27 Nov 2014 (Local Time) from EGQL Reporting Station
Haze Haze  
Wind Chill: 41°   Ceiling: 3500
Heat Index: 41°   Visibility: 4mi
Dew Point: 41°   Wind: 1mph
Humidity: 100%   Direction: 120°ESE
Pressure: 29.68"   Gusts: NA
Location:  56.56°N, 2.58°W
Report Text: EGQL 270550Z 12001KT 7000 BR FEW005 BKN035 05/05 Q1005 WHT
Loading
Personal Weather Stations






























Interactive Weather Map New forecast layout! Learn more

10-Day Weather Forecast

Advertisements
Track Severe Weather on mobile